createdAt,value
2022-10-05T00:00:46.457Z,11.34
2022-10-05T00:01:46.988Z,11.35
2022-10-05T00:02:47.835Z,11.3
2022-10-05T00:03:48.772Z,11.34
2022-10-05T00:04:48.982Z,11.25
2022-10-05T00:05:49.388Z,11.34
2022-10-05T00:06:50.447Z,11.25
2022-10-05T00:07:50.643Z,11.23
2022-10-05T00:08:51.248Z,11.22
2022-10-05T00:09:51.474Z,11.22
2022-10-05T00:10:52.418Z,11.27
2022-10-05T00:11:52.319Z,11.22
2022-10-05T00:12:53.226Z,11.23
2022-10-05T00:13:54.135Z,11.19
2022-10-05T00:14:55.358Z,11.16
2022-10-05T00:15:55.915Z,11.25
2022-10-05T00:16:57.057Z,11.22
2022-10-05T00:17:57.491Z,11.1
2022-10-05T00:18:58.432Z,11.22
2022-10-05T00:19:59.637Z,11.23
2022-10-05T00:21:00.286Z,11.19
2022-10-05T00:22:00.897Z,11.13
2022-10-05T00:23:01.525Z,11.16
2022-10-05T00:24:02.157Z,11.16
2022-10-05T00:25:02.790Z,11.15
2022-10-05T00:26:03.579Z,11.12
2022-10-05T00:27:04.176Z,11.15
2022-10-05T00:28:05.181Z,11.13
2022-10-05T00:29:05.647Z,11.15
2022-10-05T00:30:06.562Z,11.13
2022-10-05T00:31:07.466Z,11.16
2022-10-05T00:32:07.972Z,11.13
2022-10-05T00:33:07.944Z,11.13
2022-10-05T00:34:08.574Z,11.18
2022-10-05T00:35:09.480Z,11.16
2022-10-05T00:36:09.875Z,11.1
2022-10-05T00:37:10.091Z,11.1
2022-10-05T00:38:11.312Z,11.12
2022-10-05T00:39:11.908Z,11.08
2022-10-05T00:40:13.095Z,11.16
2022-10-05T00:41:13.073Z,11.13
2022-10-05T00:42:13.674Z,11.1
2022-10-05T00:43:14.593Z,11.18
2022-10-05T00:44:15.541Z,11.16
2022-10-05T00:45:16.136Z,11.18
2022-10-05T00:46:16.644Z,11.18
2022-10-05T00:47:16.667Z,11.15
2022-10-05T00:48:16.906Z,11.15
2022-10-05T00:49:17.538Z,11.15
2022-10-05T00:50:18.428Z,11.05
2022-10-05T00:51:19.325Z,11.15
2022-10-05T00:52:19.239Z,11.1
2022-10-05T00:53:20.167Z,11.1
2022-10-05T00:54:24.313Z,11.13
2022-10-05T00:55:20.909Z,11.08
2022-10-05T00:56:21.631Z,11.02
2022-10-05T00:57:22.547Z,11.07
2022-10-05T00:58:23.151Z,11
2022-10-05T00:59:24.088Z,11.12
2022-10-05T01:00:24.728Z,11.01
2022-10-05T01:01:25.856Z,11
2022-10-05T01:02:26.595Z,11.07
2022-10-05T01:03:27.666Z,11.07
2022-10-05T01:04:27.859Z,11.01
2022-10-05T01:05:28.473Z,11.12
2022-10-05T01:06:28.884Z,11.02
2022-10-05T01:07:30.098Z,11.12
2022-10-05T01:08:31.025Z,11
2022-10-05T01:09:31.639Z,11.12
2022-10-05T01:10:32.551Z,10.98
2022-10-05T01:11:32.487Z,11.07
2022-10-05T01:12:32.676Z,11.02
2022-10-05T01:13:33.575Z,11
2022-10-05T01:14:34.190Z,11
2022-10-05T01:15:34.088Z,11.01
2022-10-05T01:16:35.385Z,11
2022-10-05T01:17:35.913Z,11.04
2022-10-05T01:18:35.856Z,11.05
2022-10-05T01:19:37.048Z,11.04
2022-10-05T01:20:36.675Z,11.07
2022-10-05T01:21:37.602Z,11.07
2022-10-05T01:22:38.492Z,11.01
2022-10-05T01:23:39.131Z,10.97
2022-10-05T01:24:40.024Z,10.97
2022-10-05T01:25:40.646Z,10.9
2022-10-05T01:26:41.986Z,10.95
2022-10-05T01:27:42.465Z,10.92
2022-10-05T01:28:42.443Z,10.94
2022-10-05T01:29:42.925Z,10.87
2022-10-05T01:30:43.430Z,10.92
2022-10-05T01:31:43.857Z,10.92
2022-10-05T01:32:43.922Z,10.95
2022-10-05T01:33:45.136Z,10.92
2022-10-05T01:34:46.052Z,11
2022-10-05T01:35:45.669Z,10.86
2022-10-05T01:36:47.401Z,10.86
2022-10-05T01:37:47.446Z,10.92
2022-10-05T01:38:47.665Z,10.89
2022-10-05T01:39:48.260Z,10.92
2022-10-05T01:40:49.178Z,10.89
2022-10-05T01:41:49.426Z,11
2022-10-05T01:42:49.335Z,10.9
2022-10-05T01:43:49.935Z,10.95
2022-10-05T01:44:50.868Z,10.9
2022-10-05T01:45:51.785Z,10.84
2022-10-05T01:46:52.146Z,10.98
2022-10-05T01:47:52.633Z,10.84
2022-10-05T01:48:52.410Z,10.84
2022-10-05T01:49:52.742Z,10.89
2022-10-05T01:50:53.938Z,10.82
2022-10-05T01:51:54.571Z,10.87
2022-10-05T01:52:55.207Z,10.86
2022-10-05T01:53:56.144Z,10.87
2022-10-05T01:54:57.057Z,10.86
2022-10-05T01:55:57.269Z,10.87
2022-10-05T01:56:58.369Z,10.89
2022-10-05T01:57:58.967Z,10.9
2022-10-05T01:58:59.861Z,10.9
2022-10-05T02:00:00.501Z,10.89
2022-10-05T02:01:01.907Z,10.89
2022-10-05T02:02:02.939Z,10.92
2022-10-05T02:03:02.699Z,10.87
2022-10-05T02:04:02.932Z,10.95
2022-10-05T02:05:08.071Z,10.86
2022-10-05T02:06:04.564Z,10.87
2022-10-05T02:07:05.198Z,10.89
2022-10-05T02:08:06.385Z,10.84
2022-10-05T02:09:07.286Z,10.89
2022-10-05T02:10:07.481Z,10.89
2022-10-05T02:11:08.382Z,10.86
2022-10-05T02:12:08.740Z,10.83
2022-10-05T02:13:08.637Z,10.84
2022-10-05T02:14:08.948Z,10.79
2022-10-05T02:15:09.549Z,10.76
2022-10-05T02:16:11.005Z,10.75
2022-10-05T02:17:10.620Z,10.83
2022-10-05T02:18:11.808Z,10.79
2022-10-05T02:19:12.320Z,10.94
2022-10-05T02:20:12.508Z,10.84
2022-10-05T02:21:12.719Z,10.84
2022-10-05T02:22:13.656Z,10.82
2022-10-05T02:23:14.288Z,10.87
2022-10-05T02:24:14.910Z,10.87
2022-10-05T02:25:15.811Z,10.94
2022-10-05T02:26:16.430Z,10.89
2022-10-05T02:27:17.163Z,10.97
2022-10-05T02:28:18.278Z,10.94
2022-10-05T02:29:18.690Z,10.98
2022-10-05T02:30:22.375Z,10.95
2022-10-05T02:31:20.424Z,10.95
2022-10-05T02:32:20.818Z,10.8
2022-10-05T02:33:20.720Z,10.86
2022-10-05T02:34:20.938Z,10.82
2022-10-05T02:35:21.560Z,10.82
2022-10-05T02:36:23.067Z,10.87
2022-10-05T02:37:23.028Z,10.97
2022-10-05T02:38:23.638Z,10.84
2022-10-05T02:39:24.977Z,10.92
2022-10-05T02:40:25.609Z,10.89
2022-10-05T02:41:26.223Z,10.97
2022-10-05T02:42:26.793Z,10.95
2022-10-05T02:43:26.710Z,10.87
2022-10-05T02:44:27.069Z,10.95
2022-10-05T02:45:28.271Z,10.97
2022-10-05T02:46:29.328Z,10.92
2022-10-05T02:47:29.656Z,10.97
2022-10-05T02:48:30.547Z,10.94
2022-10-05T02:49:30.778Z,10.92
2022-10-05T02:50:31.666Z,11
2022-10-05T02:51:32.009Z,10.97
2022-10-05T02:52:32.195Z,10.87
2022-10-05T02:53:33.126Z,10.89
2022-10-05T02:54:34.347Z,10.95
2022-10-05T02:55:34.308Z,11.01
2022-10-05T02:56:35.201Z,10.89
2022-10-05T02:57:35.879Z,10.95
2022-10-05T02:58:35.775Z,11.01
2022-10-05T02:59:37.059Z,10.92
2022-10-05T03:00:36.968Z,11.01
2022-10-05T03:01:38.362Z,10.98
2022-10-05T03:02:38.643Z,10.95
2022-10-05T03:03:39.003Z,10.95
2022-10-05T03:04:39.913Z,10.92
2022-10-05T03:05:41.118Z,10.89
2022-10-05T03:06:42.032Z,10.89
2022-10-05T03:07:42.130Z,10.89
2022-10-05T03:08:42.043Z,10.95
2022-10-05T03:09:43.267Z,10.94
2022-10-05T03:10:43.105Z,10.92
2022-10-05T03:11:44.286Z,10.92
2022-10-05T03:12:44.801Z,10.89
2022-10-05T03:13:45.710Z,10.92
2022-10-05T03:14:45.324Z,10.94
2022-10-05T03:15:46.085Z,10.95
2022-10-05T03:16:46.897Z,10.84
2022-10-05T03:17:47.113Z,10.98
2022-10-05T03:18:47.001Z,10.95
2022-10-05T03:19:47.261Z,10.86
2022-10-05T03:20:47.467Z,10.84
2022-10-05T03:21:48.082Z,10.9
2022-10-05T03:22:48.996Z,10.89
2022-10-05T03:23:49.341Z,10.87
2022-10-05T03:24:50.266Z,10.9
2022-10-05T03:25:51.215Z,10.82
2022-10-05T03:26:51.236Z,10.82
2022-10-05T03:27:51.959Z,10.86
2022-10-05T03:28:52.221Z,10.84
2022-10-05T03:29:52.830Z,10.87
2022-10-05T03:30:53.645Z,10.84
2022-10-05T03:31:54.411Z,10.83
2022-10-05T03:32:55.614Z,10.8
2022-10-05T03:33:55.520Z,10.8
2022-10-05T03:34:56.579Z,10.8
2022-10-05T03:35:57.489Z,10.76
2022-10-05T03:36:57.702Z,10.79
2022-10-05T03:37:57.963Z,10.92
2022-10-05T03:38:58.449Z,10.86
2022-10-05T03:39:59.372Z,10.9
2022-10-05T03:40:59.580Z,10.95
2022-10-05T03:41:59.473Z,10.86
2022-10-05T03:43:00.407Z,10.86
2022-10-05T03:44:00.313Z,10.89
2022-10-05T03:45:01.247Z,10.9
2022-10-05T03:46:02.272Z,10.86
2022-10-05T03:47:02.686Z,10.9
2022-10-05T03:48:07.581Z,10.9
2022-10-05T03:49:04.775Z,10.9
2022-10-05T03:50:04.733Z,10.86
2022-10-05T03:51:05.321Z,10.95
2022-10-05T03:52:05.931Z,10.94
2022-10-05T03:53:06.553Z,10.94
2022-10-05T03:54:06.165Z,11.04
2022-10-05T03:55:07.372Z,10.89
2022-10-05T03:56:09.137Z,10.83
2022-10-05T03:57:09.054Z,10.9
2022-10-05T03:58:09.480Z,10.89
2022-10-05T03:59:10.666Z,10.92
2022-10-05T04:00:10.674Z,10.9
2022-10-05T04:01:11.817Z,10.9
2022-10-05T04:02:11.981Z,10.92
2022-10-05T04:03:13.063Z,10.89
2022-10-05T04:04:13.260Z,10.98
2022-10-05T04:05:13.519Z,10.86
2022-10-05T04:06:14.428Z,10.83
2022-10-05T04:07:15.046Z,10.97
2022-10-05T04:08:15.353Z,10.86
2022-10-05T04:09:16.283Z,10.95
2022-10-05T04:10:16.511Z,10.95
2022-10-05T04:11:17.126Z,10.9
2022-10-05T04:12:17.323Z,10.84
2022-10-05T04:13:18.543Z,10.89
2022-10-05T04:14:18.441Z,11
2022-10-05T04:15:24.380Z,10.95
2022-10-05T04:16:20.397Z,10.98
2022-10-05T04:17:21.184Z,10.92
2022-10-05T04:18:21.607Z,10.94
2022-10-05T04:19:21.649Z,11.01
2022-10-05T04:20:22.857Z,10.9
2022-10-05T04:21:29.181Z,10.95
2022-10-05T04:22:24.094Z,10.9
2022-10-05T04:23:24.998Z,10.84
2022-10-05T04:24:25.910Z,11.01
2022-10-05T04:25:27.112Z,11.02
2022-10-05T04:26:27.023Z,10.92
2022-10-05T04:27:28.217Z,10.9
2022-10-05T04:28:32.621Z,10.94
2022-10-05T04:29:29.064Z,10.89
2022-10-05T04:30:29.682Z,10.92
2022-10-05T04:31:30.494Z,10.9
2022-10-05T04:32:31.003Z,10.92
2022-10-05T04:33:31.945Z,10.92
2022-10-05T04:34:32.126Z,10.9
2022-10-05T04:35:33.335Z,10.94
2022-10-05T04:36:33.377Z,10.89
2022-10-05T04:37:34.658Z,11
2022-10-05T04:38:35.399Z,10.95
2022-10-05T04:39:35.733Z,10.94
2022-10-05T04:40:36.743Z,10.97
2022-10-05T04:41:37.654Z,10.98
2022-10-05T04:42:38.261Z,10.95
2022-10-05T04:43:39.249Z,10.95
2022-10-05T04:44:40.445Z,10.8
2022-10-05T04:45:40.355Z,10.86
2022-10-05T04:46:41.825Z,10.9
2022-10-05T04:47:41.757Z,10.84
2022-10-05T04:48:42.494Z,10.86
2022-10-05T04:49:42.538Z,10.82
2022-10-05T04:50:43.739Z,10.84
2022-10-05T04:51:51.103Z,10.9
2022-10-05T04:52:45.147Z,10.89
2022-10-05T04:53:46.038Z,10.89
2022-10-05T04:54:46.928Z,10.92
2022-10-05T04:55:47.135Z,10.86
2022-10-05T04:56:48.662Z,10.79
2022-10-05T04:57:48.485Z,10.79
2022-10-05T04:58:49.767Z,10.84
2022-10-05T04:59:49.640Z,10.83
2022-10-05T05:00:50.802Z,10.82
2022-10-05T05:01:51.198Z,10.83
2022-10-05T05:02:51.108Z,10.8
2022-10-05T05:03:52.839Z,10.86
2022-10-05T05:04:57.487Z,10.8
2022-10-05T05:06:18.801Z,10.8
2022-10-05T05:06:54.788Z,10.79
2022-10-05T05:07:55.406Z,10.8
2022-10-05T05:08:55.711Z,10.86
2022-10-05T05:09:55.617Z,10.79
2022-10-05T05:10:56.820Z,10.76
2022-10-05T05:11:57.555Z,10.75
2022-10-05T05:12:58.173Z,10.77
2022-10-05T05:13:57.814Z,10.8
2022-10-05T05:14:58.711Z,10.8
2022-10-05T05:16:00.346Z,10.76
2022-10-05T05:17:00.462Z,10.86
2022-10-05T05:18:00.376Z,10.79
2022-10-05T05:19:00.792Z,10.89
2022-10-05T05:20:01.707Z,10.87
2022-10-05T05:21:02.227Z,10.86
2022-10-05T05:22:02.164Z,10.89
2022-10-05T05:23:03.053Z,10.86
2022-10-05T05:24:03.678Z,10.83
2022-10-05T05:25:04.020Z,10.86
2022-10-05T05:26:05.644Z,10.86
2022-10-05T05:27:06.280Z,10.84
2022-10-05T05:28:06.817Z,10.86
2022-10-05T05:29:07.498Z,10.86
2022-10-05T05:30:08.397Z,10.97
2022-10-05T05:31:08.515Z,10.95
2022-10-05T05:32:09.363Z,10.92
2022-10-05T05:33:09.569Z,11
2022-10-05T05:34:10.536Z,11.13
2022-10-05T05:35:10.746Z,11.16
2022-10-05T05:36:10.962Z,11.22
2022-10-05T05:37:11.940Z,11.27
2022-10-05T05:38:12.855Z,11.37
2022-10-05T05:39:13.841Z,11.33
2022-10-05T05:40:14.070Z,11.33
2022-10-05T05:41:14.989Z,11.52
2022-10-05T05:42:15.757Z,11.56
2022-10-05T05:43:16.376Z,11.58
2022-10-05T05:44:16.723Z,11.55
2022-10-05T05:45:17.911Z,11.59
2022-10-05T05:46:18.961Z,11.56
2022-10-05T05:47:20.246Z,11.55
2022-10-05T05:48:20.880Z,11.48
2022-10-05T05:49:20.956Z,11.58
2022-10-05T05:50:22.148Z,11.58
2022-10-05T05:51:22.088Z,11.55
2022-10-05T05:52:22.983Z,11.59
2022-10-05T05:53:23.170Z,11.55
2022-10-05T05:54:23.664Z,11.6
2022-10-05T05:55:30.667Z,11.51
2022-10-05T05:56:25.087Z,11.58
2022-10-05T05:57:25.979Z,11.48
2022-10-05T05:58:26.470Z,11.48
2022-10-05T05:59:26.790Z,11.44
2022-10-05T06:00:26.712Z,11.45
2022-10-05T06:01:44.997Z,11.41
2022-10-05T06:02:28.545Z,11.41
2022-10-05T06:03:29.689Z,11.4
2022-10-05T06:04:29.619Z,11.37
2022-10-05T06:05:30.107Z,11.31
2022-10-05T06:06:30.709Z,11.38
2022-10-05T06:07:36.032Z,11.33
2022-10-05T06:08:31.539Z,11.33
2022-10-05T06:09:32.152Z,11.33
2022-10-05T06:10:32.367Z,11.31
2022-10-05T06:11:33.306Z,11.37
2022-10-05T06:12:33.502Z,11.37
2022-10-05T06:13:33.426Z,11.37
2022-10-05T06:14:34.074Z,11.31
2022-10-05T06:15:35.279Z,11.4
2022-10-05T06:16:36.138Z,11.31
2022-10-05T06:17:36.144Z,11.34
2022-10-05T06:18:36.638Z,11.38
2022-10-05T06:19:37.237Z,11.43
2022-10-05T06:20:37.893Z,11.44
2022-10-05T06:21:38.140Z,11.45
2022-10-05T06:22:38.464Z,11.52
2022-10-05T06:23:39.671Z,11.45
2022-10-05T06:24:40.564Z,11.41
2022-10-05T06:25:41.056Z,11.48
2022-10-05T06:26:41.044Z,11.56
2022-10-05T06:27:41.098Z,11.44
2022-10-05T06:28:42.531Z,11.51
2022-10-05T06:29:42.608Z,11.51
2022-10-05T06:30:42.821Z,11.52
2022-10-05T06:31:44.280Z,11.55
2022-10-05T06:32:44.304Z,11.44
2022-10-05T06:33:44.947Z,11.55
2022-10-05T06:34:45.292Z,11.58
2022-10-05T06:35:45.615Z,11.58
2022-10-05T06:36:47.238Z,11.59
2022-10-05T06:37:47.141Z,11.55
2022-10-05T06:38:47.756Z,11.59
2022-10-05T06:39:49.031Z,11.6
2022-10-05T06:40:49.804Z,11.59
2022-10-05T06:41:50.184Z,11.65
2022-10-05T06:42:50.388Z,11.7
2022-10-05T06:43:51.048Z,11.68
2022-10-05T06:44:52.162Z,11.6
2022-10-05T06:45:52.829Z,11.73
2022-10-05T06:46:53.248Z,11.74
2022-10-05T06:47:53.748Z,11.81
2022-10-05T06:48:53.748Z,11.89
2022-10-05T06:49:55.117Z,11.97
2022-10-05T06:50:55.053Z,12.2
2022-10-05T06:51:55.279Z,12.61
2022-10-05T06:52:55.926Z,13.01
2022-10-05T06:53:56.846Z,13.21
2022-10-05T06:54:58.085Z,13.52
2022-10-05T06:55:57.750Z,13.65
2022-10-05T06:56:59.289Z,13.78
2022-10-05T06:57:59.207Z,13.76
2022-10-05T06:58:59.406Z,13.75
2022-10-05T07:00:00.177Z,13.76
2022-10-05T07:01:00.554Z,13.89
2022-10-05T07:02:01.254Z,13.97
2022-10-05T07:03:01.033Z,14
2022-10-05T07:04:01.956Z,14.15
2022-10-05T07:05:02.475Z,14.19
2022-10-05T07:06:03.394Z,14.26
2022-10-05T07:07:03.614Z,14.23
2022-10-05T07:08:04.119Z,14.25
2022-10-05T07:09:04.448Z,14.26
2022-10-05T07:10:05.618Z,14.28
2022-10-05T07:11:06.830Z,14.3
2022-10-05T07:12:11.328Z,14.28
2022-10-05T07:13:07.255Z,14.26
2022-10-05T07:14:08.151Z,14.48
2022-10-05T07:15:08.822Z,14.61
2022-10-05T07:16:09.965Z,14.55
2022-10-05T07:17:11.036Z,14.41
2022-10-05T07:18:11.348Z,14.44
2022-10-05T07:19:11.552Z,14.34
2022-10-05T07:20:12.031Z,14.41
2022-10-05T07:21:12.978Z,14.37
2022-10-05T07:22:12.623Z,14.38
2022-10-05T07:23:13.525Z,14.43
2022-10-05T07:24:14.747Z,14.34
2022-10-05T07:25:15.240Z,14.37
2022-10-05T07:26:15.155Z,14.34
2022-10-05T07:27:16.371Z,14.37
2022-10-05T07:28:17.096Z,14.53
2022-10-05T07:29:16.943Z,14.78
2022-10-05T07:30:17.286Z,14.82
2022-10-05T07:31:18.144Z,14.99
2022-10-05T07:32:19.428Z,14.99
2022-10-05T07:33:19.633Z,14.93
2022-10-05T07:34:20.554Z,14.93
2022-10-05T07:35:20.844Z,14.94
2022-10-05T07:36:20.769Z,14.87
2022-10-05T07:37:22.001Z,14.81
2022-10-05T07:38:22.910Z,14.82
2022-10-05T07:39:32.391Z,14.73
2022-10-05T07:40:44.652Z,14.79
2022-10-05T07:41:44.854Z,14.71
2022-10-05T07:42:54.598Z,14.78
2022-10-05T07:44:13.158Z,14.89
2022-10-05T07:44:46.124Z,14.86
2022-10-05T07:45:47.849Z,14.87
2022-10-05T07:46:49.029Z,14.82
2022-10-05T07:47:48.726Z,14.96
2022-10-05T07:48:48.624Z,14.92
2022-10-05T07:49:49.548Z,14.99
2022-10-05T07:50:49.919Z,14.89
2022-10-05T07:51:49.689Z,14.89
2022-10-05T07:52:50.296Z,14.99
2022-10-05T07:53:50.284Z,15
2022-10-05T07:54:51.204Z,14.99
2022-10-05T07:55:51.418Z,15.1
2022-10-05T07:56:52.440Z,15.17
2022-10-05T07:57:52.691Z,15.23
2022-10-05T07:58:52.910Z,15.33
2022-10-05T07:59:53.419Z,15.33
2022-10-05T08:00:53.730Z,15.35
2022-10-05T08:01:54.236Z,15.35
2022-10-05T08:02:54.897Z,15.5
2022-10-05T08:03:54.940Z,15.52
2022-10-05T08:04:55.310Z,15.54
2022-10-05T08:05:55.942Z,15.52
2022-10-05T08:06:56.822Z,15.63
2022-10-05T08:07:57.427Z,15.67
2022-10-05T08:08:57.098Z,15.72
2022-10-05T08:09:57.465Z,15.7
2022-10-05T08:10:58.500Z,15.67
2022-10-05T08:11:59.421Z,15.7
2022-10-05T08:12:59.771Z,15.7
2022-10-05T08:14:00.259Z,15.66
2022-10-05T08:15:00.881Z,15.72
2022-10-05T08:16:01.787Z,15.72
2022-10-05T08:17:02.213Z,15.83
2022-10-05T08:18:02.513Z,15.83
2022-10-05T08:19:02.863Z,15.75
2022-10-05T08:20:04.303Z,15.73
2022-10-05T08:21:04.629Z,15.78
2022-10-05T08:22:04.827Z,15.85
2022-10-05T08:23:06.069Z,15.83
2022-10-05T08:24:05.714Z,15.81
2022-10-05T08:25:06.636Z,15.87
2022-10-05T08:26:07.350Z,15.9
2022-10-05T08:27:08.277Z,15.94
2022-10-05T08:28:08.907Z,15.91
2022-10-05T08:29:14.186Z,15.94
2022-10-05T08:30:09.108Z,15.99
2022-10-05T08:31:09.886Z,16.1
2022-10-05T08:32:09.825Z,16.05
2022-10-05T08:33:10.324Z,16.16
2022-10-05T08:34:10.070Z,16.17
2022-10-05T08:35:10.977Z,16.25
2022-10-05T08:36:11.915Z,16.4
2022-10-05T08:37:12.113Z,16.41
2022-10-05T08:38:12.068Z,16.49
2022-10-05T08:39:12.683Z,16.61
2022-10-05T08:40:13.133Z,16.68
2022-10-05T08:41:14.183Z,16.66
2022-10-05T08:42:14.401Z,16.82
2022-10-05T08:43:14.617Z,16.86
2022-10-05T08:44:14.813Z,16.86
2022-10-05T08:45:15.038Z,16.86
2022-10-05T08:46:16.210Z,16.91
2022-10-05T08:47:16.060Z,16.77
2022-10-05T08:48:17.009Z,16.89
2022-10-05T08:49:17.667Z,16.87
2022-10-05T08:50:18.575Z,16.97
2022-10-05T08:51:18.356Z,16.95
2022-10-05T08:52:19.347Z,16.98
2022-10-05T08:53:19.620Z,16.94
2022-10-05T08:54:20.554Z,16.99
2022-10-05T08:55:21.191Z,17.04
2022-10-05T08:56:29.223Z,16.97
2022-10-05T08:57:22.435Z,17.14
2022-10-05T08:58:22.819Z,17.1
2022-10-05T08:59:23.750Z,17.24
2022-10-05T09:00:24.255Z,17.22
2022-10-05T09:01:24.614Z,17.28
2022-10-05T09:02:25.127Z,17.35
2022-10-05T09:03:25.590Z,17.39
2022-10-05T09:04:25.602Z,17.38
2022-10-05T09:05:26.251Z,17.53
2022-10-05T09:06:27.505Z,17.57
2022-10-05T09:07:28.431Z,17.59
2022-10-05T09:08:28.446Z,17.75
2022-10-05T09:09:28.661Z,17.78
2022-10-05T09:10:28.866Z,17.73
2022-10-05T09:11:29.228Z,17.84
2022-10-05T09:12:29.853Z,17.87
2022-10-05T09:13:31.071Z,17.95
2022-10-05T09:14:31.676Z,18.05
2022-10-05T09:15:32.667Z,17.95
2022-10-05T09:16:33.788Z,18.09
2022-10-05T09:17:39.577Z,18
2022-10-05T09:18:34.781Z,18.03
2022-10-05T09:19:35.277Z,18.12
2022-10-05T09:20:35.484Z,18.12
2022-10-05T09:21:35.784Z,18.16
2022-10-05T09:22:35.563Z,18.19
2022-10-05T09:23:36.940Z,18.16
2022-10-05T09:24:37.444Z,18.3
2022-10-05T09:25:37.839Z,18.37
2022-10-05T09:26:38.085Z,18.36
2022-10-05T09:27:39.110Z,18.37
2022-10-05T09:28:39.558Z,18.37
2022-10-05T09:29:40.255Z,18.37
2022-10-05T09:30:40.872Z,18.43
2022-10-05T09:31:40.729Z,18.42
2022-10-05T09:32:40.801Z,18.46
2022-10-05T09:33:41.179Z,18.43
2022-10-05T09:34:41.818Z,18.49
2022-10-05T09:35:42.489Z,18.58
2022-10-05T09:36:43.429Z,18.7
2022-10-05T09:37:44.546Z,18.67
2022-10-05T09:38:44.532Z,18.79
2022-10-05T09:39:45.749Z,18.79
2022-10-05T09:40:46.188Z,18.81
2022-10-05T09:41:47.172Z,18.86
2022-10-05T09:42:47.525Z,18.89
2022-10-05T09:43:48.005Z,18.94
2022-10-05T09:44:47.974Z,19.01
2022-10-05T09:45:48.896Z,19.17
2022-10-05T09:46:49.323Z,19.24
2022-10-05T09:47:50.608Z,19.37
2022-10-05T09:48:50.822Z,19.49
2022-10-05T09:49:52.275Z,19.66
2022-10-05T09:50:52.605Z,19.93
2022-10-05T09:51:53.457Z,19.96
2022-10-05T09:52:53.064Z,20.1
2022-10-05T09:53:53.400Z,20.27
2022-10-05T09:54:54.330Z,20.5
2022-10-05T09:55:54.839Z,20.77
2022-10-05T09:56:55.561Z,21.15
2022-10-05T09:57:58.846Z,21.51
2022-10-05T09:58:56.082Z,21.72
2022-10-05T09:59:57.116Z,22.08
2022-10-05T10:01:33.006Z,22.55
2022-10-05T10:02:23.371Z,22.8
2022-10-05T10:03:23.244Z,23.32
2022-10-05T10:04:23.498Z,23.69
2022-10-05T10:05:23.485Z,24.11
2022-10-05T10:06:24.698Z,24.56
2022-10-05T10:07:24.963Z,24.71
2022-10-05T10:08:25.204Z,25.03
2022-10-05T10:09:25.489Z,24.99
2022-10-05T10:10:26.216Z,25.04
2022-10-05T10:11:26.422Z,25.01
2022-10-05T10:12:26.780Z,24.97
2022-10-05T10:13:27.287Z,25
2022-10-05T10:14:27.932Z,24.86
2022-10-05T10:15:28.164Z,24.84
2022-10-05T10:16:29.132Z,24.61
2022-10-05T10:17:29.653Z,24.56
2022-10-05T10:18:29.577Z,24.43
2022-10-05T10:19:30.493Z,24.5
2022-10-05T10:20:31.426Z,24.53
2022-10-05T10:21:32.047Z,24.68
2022-10-05T10:22:33.097Z,24.63
2022-10-05T10:23:33.641Z,24.53
2022-10-05T10:24:33.760Z,24.58
2022-10-05T10:25:34.989Z,24.61
2022-10-05T10:26:35.503Z,24.58
2022-10-05T10:27:35.764Z,24.53
2022-10-05T10:28:36.379Z,24.47
2022-10-05T10:29:37.026Z,24.62
2022-10-05T10:30:41.316Z,24.53
2022-10-05T10:31:37.442Z,24.58
2022-10-05T10:32:38.299Z,24.41
2022-10-05T10:33:38.522Z,24.29
2022-10-05T10:34:39.445Z,24.28
2022-10-05T10:35:39.367Z,24.19
2022-10-05T10:36:40.598Z,24.25
2022-10-05T10:37:41.148Z,24.06
2022-10-05T10:38:42.102Z,23.99
2022-10-05T10:39:42.361Z,23.95
2022-10-05T10:40:43.278Z,23.82
2022-10-05T10:41:44.214Z,23.76
2022-10-05T10:42:44.279Z,23.74
2022-10-05T10:43:44.775Z,23.47
2022-10-05T10:44:45.310Z,23.36
2022-10-05T10:45:45.532Z,23.25
2022-10-05T10:46:45.799Z,23.39
2022-10-05T10:47:45.788Z,23.21
2022-10-05T10:48:46.276Z,23.21
2022-10-05T10:49:46.624Z,23.1
2022-10-05T10:50:46.957Z,23.1
2022-10-05T10:51:47.464Z,23.08
2022-10-05T10:52:47.807Z,23.13
2022-10-05T10:53:48.023Z,23.08
2022-10-05T10:54:47.678Z,23.07
2022-10-05T10:55:49.179Z,22.96
2022-10-05T10:56:50.708Z,22.92
2022-10-05T10:57:50.105Z,22.93
2022-10-05T10:58:51.058Z,22.7
2022-10-05T10:59:52.007Z,22.74
2022-10-05T11:00:51.638Z,22.71
2022-10-05T11:01:53.951Z,22.7
2022-10-05T11:02:53.400Z,22.8
2022-10-05T11:03:54.314Z,22.78
2022-10-05T11:04:54.638Z,22.73
2022-10-05T11:05:55.852Z,22.7
2022-10-05T11:06:56.388Z,22.71
2022-10-05T11:07:57.304Z,22.77
2022-10-05T11:08:57.514Z,22.77
2022-10-05T11:09:57.778Z,22.68
2022-10-05T11:10:58.799Z,22.59
2022-10-05T11:11:58.437Z,22.55
2022-10-05T11:12:59.511Z,22.59
2022-10-05T11:14:00.015Z,22.52
2022-10-05T11:15:00.678Z,22.59
2022-10-05T11:16:01.992Z,22.67
2022-10-05T11:17:02.582Z,22.7
2022-10-05T11:18:03.722Z,22.76
2022-10-05T11:19:03.927Z,22.83
2022-10-05T11:20:10.104Z,22.83
2022-10-05T11:21:05.083Z,22.83
2022-10-05T11:22:06.290Z,22.84
2022-10-05T11:23:07.334Z,22.73
2022-10-05T11:24:07.962Z,22.77
2022-10-05T11:25:08.227Z,22.83
2022-10-05T11:26:09.458Z,22.83
2022-10-05T11:27:09.547Z,22.92
2022-10-05T11:28:10.121Z,22.83
2022-10-05T11:29:09.996Z,22.83
2022-10-05T11:30:10.818Z,22.84
2022-10-05T11:31:11.170Z,22.8
2022-10-05T11:32:11.629Z,22.74
2022-10-05T11:33:12.319Z,22.8
2022-10-05T11:34:12.510Z,22.8
2022-10-05T11:35:13.015Z,22.88
2022-10-05T11:36:13.217Z,22.77
2022-10-05T11:37:14.147Z,22.71
2022-10-05T11:38:15.443Z,22.76
2022-10-05T11:39:16.399Z,22.78
2022-10-05T11:40:16.640Z,22.78
2022-10-05T11:41:16.984Z,22.73
2022-10-05T11:42:17.213Z,22.8
2022-10-05T11:43:18.558Z,22.84
2022-10-05T11:44:18.782Z,22.95
2022-10-05T11:45:19.725Z,22.92
2022-10-05T11:46:20.462Z,23.06
2022-10-05T11:47:20.859Z,23.01
2022-10-05T11:48:21.138Z,23.04
2022-10-05T11:49:22.076Z,23.02
2022-10-05T11:50:22.583Z,22.92
2022-10-05T11:51:29.149Z,23.11
2022-10-05T11:52:22.799Z,22.95
2022-10-05T11:53:23.865Z,23.08
2022-10-05T11:54:24.795Z,22.95
2022-10-05T11:55:24.957Z,23.11
2022-10-05T11:56:25.376Z,23.13
2022-10-05T11:57:25.906Z,23.16
2022-10-05T11:58:26.539Z,23.2
2022-10-05T11:59:27.470Z,23.18
2022-10-05T12:00:27.705Z,23.16
2022-10-05T12:01:27.635Z,23.16
2022-10-05T12:02:28.723Z,23.06
2022-10-05T12:03:29.673Z,23.01
2022-10-05T12:04:29.730Z,22.99
2022-10-05T12:05:30.031Z,23.08
2022-10-05T12:06:30.264Z,23.1
2022-10-05T12:07:31.231Z,23.18
2022-10-05T12:08:31.160Z,23.17
2022-10-05T12:09:31.677Z,23.17
2022-10-05T12:10:32.706Z,23.21
2022-10-05T12:11:33.337Z,23.23
2022-10-05T12:12:34.006Z,23.26
2022-10-05T12:13:35.338Z,23.32
2022-10-05T12:14:36.027Z,23.29
2022-10-05T12:15:36.968Z,23.23
2022-10-05T12:16:37.323Z,23.29
2022-10-05T12:17:37.532Z,23.39
2022-10-05T12:18:37.543Z,23.47
2022-10-05T12:19:38.756Z,23.48
2022-10-05T12:20:38.660Z,23.58
2022-10-05T12:21:39.584Z,23.58
2022-10-05T12:22:40.254Z,23.66
2022-10-05T12:23:41.085Z,23.69
2022-10-05T12:24:41.069Z,23.74
2022-10-05T12:25:41.327Z,23.82
2022-10-05T12:26:41.262Z,23.92
2022-10-05T12:27:41.890Z,24.06
2022-10-05T12:28:41.854Z,24.09
2022-10-05T12:29:42.205Z,24.21
2022-10-05T12:30:43.588Z,24.18
2022-10-05T12:31:44.872Z,24.28
2022-10-05T12:32:45.203Z,24.34
2022-10-05T12:33:46.271Z,24.34
2022-10-05T12:34:47.512Z,24.41
2022-10-05T12:35:54.400Z,24.44
2022-10-05T12:37:08.514Z,24.58
2022-10-05T12:37:48.454Z,24.48
2022-10-05T12:38:49.417Z,24.66
2022-10-05T12:39:50.080Z,24.59
2022-10-05T12:40:50.756Z,24.62
2022-10-05T12:41:51.439Z,24.61
2022-10-05T12:42:51.951Z,24.53
2022-10-05T12:43:51.979Z,24.53
2022-10-05T12:44:52.605Z,24.58
2022-10-05T12:45:53.242Z,24.5
2022-10-05T12:46:53.918Z,24.46
2022-10-05T12:47:59.422Z,24.48
2022-10-05T12:48:54.653Z,24.44
2022-10-05T12:49:55.583Z,24.51
2022-10-05T12:50:55.333Z,24.44
2022-10-05T12:51:56.848Z,24.53
2022-10-05T12:52:57.396Z,24.56
2022-10-05T12:53:57.230Z,24.69
2022-10-05T12:54:57.304Z,24.82
2022-10-05T12:55:59.116Z,24.81
2022-10-05T12:56:59.048Z,24.88
2022-10-05T12:57:59.285Z,24.96
2022-10-05T12:58:59.013Z,25.07
2022-10-05T12:59:59.751Z,25.04
2022-10-05T13:01:01.314Z,25.14
2022-10-05T13:02:02.189Z,25.12
2022-10-05T13:03:02.822Z,25.15
2022-10-05T13:04:02.869Z,25.25
2022-10-05T13:05:03.066Z,25.33